Terminal Aerodrome Forecast
Issued by NWS Tuscon, AZ

Home | Current Version | Previous Version | Text Only | Print | Product List | Glossary On
Versions: 1 2 3 4 5 6 7 8 9 10 11 12 13 14 15 16 17 18 19
458
FTUS45 KTWC 250521
TAFDUG
TAF
KDUG 250521Z 2506/2606 14020KT P6SM VCTS BKN060CB BKN100
     FM250700 17011KT P6SM BKN100 BKN180
     FM251000 VRB03KT P6SM FEW120 BKN180
     FM252000 25010KT P6SM SCT070 SCT140=

USA.gov is the U.S. government's official web portal to all federal, state and local government web resources and services.